sensor_id;sensor_type;location;lat;lon;timestamp;P1;durP1;ratioP1;P2;durP2;ratioP2
2388;SDS011;1205;47.984;7.668;2022-07-23T00:00:33;8.00;;;7.20;;
2388;SDS011;1205;47.984;7.668;2022-07-23T00:02:59;8.10;;;7.33;;
2388;SDS011;1205;47.984;7.668;2022-07-23T00:05:24;9.03;;;8.13;;
2388;SDS011;1205;47.984;7.668;2022-07-23T00:07:50;7.50;;;6.77;;
2388;SDS011;1205;47.984;7.668;2022-07-23T00:10:16;7.47;;;6.77;;
2388;SDS011;1205;47.984;7.668;2022-07-23T00:12:42;8.10;;;7.30;;
2388;SDS011;1205;47.984;7.668;2022-07-23T00:15:08;9.03;;;7.30;;
2388;SDS011;1205;47.984;7.668;2022-07-23T00:17:34;8.67;;;6.67;;
2388;SDS011;1205;47.984;7.668;2022-07-23T00:20:00;7.27;;;6.33;;
2388;SDS011;1205;47.984;7.668;2022-07-23T00:22:27;8.20;;;7.50;;
2388;SDS011;1205;47.984;7.668;2022-07-23T00:24:54;7.83;;;7.03;;
2388;SDS011;1205;47.984;7.668;2022-07-23T00:27:20;10.90;;;7.40;;
2388;SDS011;1205;47.984;7.668;2022-07-23T00:29:46;9.00;;;7.63;;
2388;SDS011;1205;47.984;7.668;2022-07-23T00:32:11;10.37;;;8.57;;
2388;SDS011;1205;47.984;7.668;2022-07-23T00:34:38;9.53;;;8.50;;
2388;SDS011;1205;47.984;7.668;2022-07-23T00:37:04;17.70;;;8.17;;
2388;SDS011;1205;47.984;7.668;2022-07-23T00:39:29;12.50;;;8.80;;
2388;SDS011;1205;47.984;7.668;2022-07-23T00:41:55;11.23;;;8.50;;
2388;SDS011;1205;47.984;7.668;2022-07-23T00:44:25;8.63;;;7.77;;
2388;SDS011;1205;47.984;7.668;2022-07-23T00:46:52;8.70;;;7.90;;
2388;SDS011;1205;47.984;7.668;2022-07-23T00:49:23;8.33;;;7.63;;
2388;SDS011;1205;47.984;7.668;2022-07-23T00:51:51;9.67;;;7.90;;
2388;SDS011;1205;47.984;7.668;2022-07-23T00:54:17;9.00;;;8.10;;
2388;SDS011;1205;47.984;7.668;2022-07-23T00:56:45;8.13;;;7.33;;
2388;SDS011;1205;47.984;7.668;2022-07-23T00:59:11;7.50;;;6.87;;
2388;SDS011;1205;47.984;7.668;2022-07-23T01:01:38;12.27;;;7.73;;
2388;SDS011;1205;47.984;7.668;2022-07-23T01:04:05;8.83;;;7.57;;
2388;SDS011;1205;47.984;7.668;2022-07-23T01:06:34;11.20;;;9.00;;
2388;SDS011;1205;47.984;7.668;2022-07-23T01:09:02;12.50;;;8.07;;
2388;SDS011;1205;47.984;7.668;2022-07-23T01:11:32;10.53;;;8.60;;
2388;SDS011;1205;47.984;7.668;2022-07-23T01:14:07;11.60;;;8.60;;
2388;SDS011;1205;47.984;7.668;2022-07-23T01:16:35;10.67;;;9.20;;
2388;SDS011;1205;47.984;7.668;2022-07-23T01:19:01;12.10;;;9.40;;
2388;SDS011;1205;47.984;7.668;2022-07-23T01:21:31;10.57;;;9.57;;
2388;SDS011;1205;47.984;7.668;2022-07-23T01:23:59;12.57;;;8.90;;
2388;SDS011;1205;47.984;7.668;2022-07-23T01:26:25;12.57;;;9.77;;
2388;SDS011;1205;47.984;7.668;2022-07-23T01:28:50;14.67;;;10.70;;
2388;SDS011;1205;47.984;7.668;2022-07-23T01:31:16;15.27;;;10.40;;
2388;SDS011;1205;47.984;7.668;2022-07-23T01:33:43;11.43;;;9.27;;
2388;SDS011;1205;47.984;7.668;2022-07-23T01:36:08;14.77;;;9.57;;
2388;SDS011;1205;47.984;7.668;2022-07-23T01:38:34;10.53;;;9.37;;
2388;SDS011;1205;47.984;7.668;2022-07-23T01:41:00;11.60;;;9.70;;
2388;SDS011;1205;47.984;7.668;2022-07-23T01:43:25;11.70;;;10.53;;
2388;SDS011;1205;47.984;7.668;2022-07-23T01:45:51;11.40;;;10.30;;
2388;SDS011;1205;47.984;7.668;2022-07-23T01:48:17;10.50;;;9.47;;
2388;SDS011;1205;47.984;7.668;2022-07-23T01:50:42;12.47;;;10.73;;
2388;SDS011;1205;47.984;7.668;2022-07-23T01:53:08;12.63;;;10.07;;
2388;SDS011;1205;47.984;7.668;2022-07-23T01:55:34;12.90;;;10.60;;
2388;SDS011;1205;47.984;7.668;2022-07-23T01:57:59;14.57;;;10.23;;
2388;SDS011;1205;47.984;7.668;2022-07-23T02:00:26;11.07;;;9.60;;
2388;SDS011;1205;47.984;7.668;2022-07-23T02:02:51;12.03;;;10.83;;
2388;SDS011;1205;47.984;7.668;2022-07-23T02:05:17;11.60;;;10.40;;
2388;SDS011;1205;47.984;7.668;2022-07-23T02:07:43;11.20;;;10.20;;
2388;SDS011;1205;47.984;7.668;2022-07-23T02:10:08;12.93;;;10.57;;
2388;SDS011;1205;47.984;7.668;2022-07-23T02:12:34;11.07;;;9.47;;
2388;SDS011;1205;47.984;7.668;2022-07-23T02:15:00;10.77;;;9.20;;
2388;SDS011;1205;47.984;7.668;2022-07-23T02:17:26;10.27;;;9.37;;
2388;SDS011;1205;47.984;7.668;2022-07-23T02:19:52;9.67;;;8.77;;
2388;SDS011;1205;47.984;7.668;2022-07-23T02:22:17;12.77;;;9.90;;
2388;SDS011;1205;47.984;7.668;2022-07-23T02:24:43;14.30;;;9.70;;
2388;SDS011;1205;47.984;7.668;2022-07-23T02:27:08;11.03;;;10.03;;
2388;SDS011;1205;47.984;7.668;2022-07-23T02:29:34;10.80;;;9.13;;
2388;SDS011;1205;47.984;7.668;2022-07-23T02:32:00;8.80;;;8.00;;
2388;SDS011;1205;47.984;7.668;2022-07-23T02:34:26;10.53;;;9.13;;
2388;SDS011;1205;47.984;7.668;2022-07-23T02:36:51;10.47;;;9.43;;
2388;SDS011;1205;47.984;7.668;2022-07-23T02:39:17;11.17;;;9.70;;
2388;SDS011;1205;47.984;7.668;2022-07-23T02:41:43;9.73;;;8.77;;
2388;SDS011;1205;47.984;7.668;2022-07-23T02:44:08;10.50;;;9.40;;
2388;SDS011;1205;47.984;7.668;2022-07-23T02:46:34;11.00;;;9.90;;
2388;SDS011;1205;47.984;7.668;2022-07-23T02:49:00;12.13;;;9.80;;
2388;SDS011;1205;47.984;7.668;2022-07-23T02:51:25;10.43;;;9.43;;
2388;SDS011;1205;47.984;7.668;2022-07-23T02:53:51;8.70;;;8.00;;
2388;SDS011;1205;47.984;7.668;2022-07-23T02:56:17;10.30;;;9.30;;
2388;SDS011;1205;47.984;7.668;2022-07-23T02:58:42;10.97;;;9.87;;
2388;SDS011;1205;47.984;7.668;2022-07-23T03:01:08;13.90;;;10.90;;
2388;SDS011;1205;47.984;7.668;2022-07-23T03:03:34;12.33;;;10.27;;
2388;SDS011;1205;47.984;7.668;2022-07-23T03:06:00;11.60;;;10.40;;
2388;SDS011;1205;47.984;7.668;2022-07-23T03:08:25;13.37;;;8.53;;
2388;SDS011;1205;47.984;7.668;2022-07-23T03:10:51;11.20;;;10.20;;
2388;SDS011;1205;47.984;7.668;2022-07-23T03:13:17;15.03;;;9.50;;
2388;SDS011;1205;47.984;7.668;2022-07-23T03:15:42;12.30;;;9.30;;
2388;SDS011;1205;47.984;7.668;2022-07-23T03:18:08;11.77;;;9.10;;
2388;SDS011;1205;47.984;7.668;2022-07-23T03:20:33;11.40;;;10.17;;
2388;SDS011;1205;47.984;7.668;2022-07-23T03:22:59;11.10;;;10.00;;
2388;SDS011;1205;47.984;7.668;2022-07-23T03:25:25;12.13;;;10.97;;
2388;SDS011;1205;47.984;7.668;2022-07-23T03:27:50;10.73;;;8.63;;
2388;SDS011;1205;47.984;7.668;2022-07-23T03:30:16;12.17;;;10.83;;
2388;SDS011;1205;47.984;7.668;2022-07-23T03:32:42;11.47;;;9.43;;
2388;SDS011;1205;47.984;7.668;2022-07-23T03:35:08;11.37;;;10.23;;
2388;SDS011;1205;47.984;7.668;2022-07-23T03:37:33;10.27;;;9.27;;
2388;SDS011;1205;47.984;7.668;2022-07-23T03:39:59;11.60;;;10.57;;
2388;SDS011;1205;47.984;7.668;2022-07-23T03:42:25;11.87;;;10.87;;
2388;SDS011;1205;47.984;7.668;2022-07-23T03:44:51;13.43;;;12.10;;
2388;SDS011;1205;47.984;7.668;2022-07-23T03:47:17;16.37;;;12.90;;
2388;SDS011;1205;47.984;7.668;2022-07-23T03:49:46;14.17;;;12.60;;
2388;SDS011;1205;47.984;7.668;2022-07-23T03:52:13;13.07;;;11.67;;
2388;SDS011;1205;47.984;7.668;2022-07-23T03:54:39;11.80;;;10.70;;
2388;SDS011;1205;47.984;7.668;2022-07-23T03:57:04;13.37;;;11.27;;
2388;SDS011;1205;47.984;7.668;2022-07-23T03:59:30;13.00;;;11.80;;
2388;SDS011;1205;47.984;7.668;2022-07-23T04:01:56;12.20;;;10.63;;
2388;SDS011;1205;47.984;7.668;2022-07-23T04:04:22;12.20;;;10.93;;
2388;SDS011;1205;47.984;7.668;2022-07-23T04:06:47;14.03;;;11.90;;
2388;SDS011;1205;47.984;7.668;2022-07-23T04:09:13;17.57;;;11.93;;
2388;SDS011;1205;47.984;7.668;2022-07-23T04:11:39;14.77;;;11.70;;
2388;SDS011;1205;47.984;7.668;2022-07-23T04:14:05;13.83;;;10.17;;
2388;SDS011;1205;47.984;7.668;2022-07-23T04:16:30;11.83;;;10.03;;
2388;SDS011;1205;47.984;7.668;2022-07-23T04:18:56;11.23;;;10.13;;
2388;SDS011;1205;47.984;7.668;2022-07-23T04:21:23;10.90;;;9.77;;
2388;SDS011;1205;47.984;7.668;2022-07-23T04:23:49;11.13;;;10.13;;
2388;SDS011;1205;47.984;7.668;2022-07-23T04:26:15;11.00;;;10.00;;
2388;SDS011;1205;47.984;7.668;2022-07-23T04:28:41;9.57;;;8.73;;
2388;SDS011;1205;47.984;7.668;2022-07-23T04:31:07;11.13;;;10.13;;
2388;SDS011;1205;47.984;7.668;2022-07-23T04:33:33;11.93;;;10.90;;
2388;SDS011;1205;47.984;7.668;2022-07-23T04:35:59;11.67;;;10.17;;
2388;SDS011;1205;47.984;7.668;2022-07-23T04:38:24;9.93;;;9.03;;
2388;SDS011;1205;47.984;7.668;2022-07-23T04:40:50;13.03;;;11.83;;
2388;SDS011;1205;47.984;7.668;2022-07-23T04:43:16;12.40;;;11.10;;
2388;SDS011;1205;47.984;7.668;2022-07-23T04:45:41;12.10;;;10.90;;
2388;SDS011;1205;47.984;7.668;2022-07-23T04:48:07;10.67;;;9.77;;
2388;SDS011;1205;47.984;7.668;2022-07-23T04:50:33;13.63;;;11.97;;
2388;SDS011;1205;47.984;7.668;2022-07-23T04:52:58;17.83;;;13.63;;
2388;SDS011;1205;47.984;7.668;2022-07-23T04:55:24;20.63;;;12.93;;
2388;SDS011;1205;47.984;7.668;2022-07-23T04:57:50;10.70;;;9.60;;
2388;SDS011;1205;47.984;7.668;2022-07-23T05:00:16;12.70;;;11.60;;
2388;SDS011;1205;47.984;7.668;2022-07-23T05:02:41;15.23;;;10.23;;
2388;SDS011;1205;47.984;7.668;2022-07-23T05:05:07;10.70;;;9.73;;
2388;SDS011;1205;47.984;7.668;2022-07-23T05:07:33;10.93;;;10.03;;
2388;SDS011;1205;47.984;7.668;2022-07-23T05:09:58;10.03;;;9.17;;
2388;SDS011;1205;47.984;7.668;2022-07-23T05:12:24;11.07;;;10.00;;
2388;SDS011;1205;47.984;7.668;2022-07-23T05:14:50;20.00;;;8.90;;
2388;SDS011;1205;47.984;7.668;2022-07-23T05:17:17;17.13;;;9.50;;
2388;SDS011;1205;47.984;7.668;2022-07-23T05:19:43;9.77;;;8.80;;
2388;SDS011;1205;47.984;7.668;2022-07-23T05:22:09;8.53;;;7.87;;
2388;SDS011;1205;47.984;7.668;2022-07-23T05:24:35;9.63;;;8.63;;
2388;SDS011;1205;47.984;7.668;2022-07-23T05:27:00;14.43;;;8.33;;
2388;SDS011;1205;47.984;7.668;2022-07-23T05:29:26;10.57;;;8.30;;
2388;SDS011;1205;47.984;7.668;2022-07-23T05:31:51;8.30;;;7.60;;
2388;SDS011;1205;47.984;7.668;2022-07-23T05:34:17;13.23;;;11.47;;
2388;SDS011;1205;47.984;7.668;2022-07-23T05:36:43;15.37;;;12.10;;
2388;SDS011;1205;47.984;7.668;2022-07-23T05:39:08;14.67;;;13.27;;
2388;SDS011;1205;47.984;7.668;2022-07-23T05:41:34;13.17;;;10.00;;
2388;SDS011;1205;47.984;7.668;2022-07-23T05:44:00;12.40;;;9.67;;
2388;SDS011;1205;47.984;7.668;2022-07-23T05:46:25;11.60;;;9.93;;
2388;SDS011;1205;47.984;7.668;2022-07-23T05:48:51;15.47;;;12.37;;
2388;SDS011;1205;47.984;7.668;2022-07-23T05:51:23;17.37;;;12.50;;
2388;SDS011;1205;47.984;7.668;2022-07-23T05:53:50;14.40;;;11.30;;
2388;SDS011;1205;47.984;7.668;2022-07-23T05:56:16;10.80;;;9.80;;
2388;SDS011;1205;47.984;7.668;2022-07-23T05:58:42;10.53;;;9.43;;
2388;SDS011;1205;47.984;7.668;2022-07-23T06:01:08;12.67;;;10.00;;
2388;SDS011;1205;47.984;7.668;2022-07-23T06:03:34;15.73;;;10.20;;
2388;SDS011;1205;47.984;7.668;2022-07-23T06:06:00;9.97;;;9.07;;
2388;SDS011;1205;47.984;7.668;2022-07-23T06:08:25;10.83;;;9.70;;
2388;SDS011;1205;47.984;7.668;2022-07-23T06:10:51;11.83;;;9.47;;
2388;SDS011;1205;47.984;7.668;2022-07-23T06:13:17;15.33;;;10.50;;
2388;SDS011;1205;47.984;7.668;2022-07-23T06:15:43;10.63;;;9.73;;
2388;SDS011;1205;47.984;7.668;2022-07-23T06:18:09;15.50;;;10.13;;
2388;SDS011;1205;47.984;7.668;2022-07-23T06:20:35;10.43;;;9.33;;
2388;SDS011;1205;47.984;7.668;2022-07-23T06:23:00;12.27;;;9.20;;
2388;SDS011;1205;47.984;7.668;2022-07-23T06:25:26;16.67;;;10.23;;
2388;SDS011;1205;47.984;7.668;2022-07-23T06:27:52;18.10;;;9.50;;
2388;SDS011;1205;47.984;7.668;2022-07-23T06:30:17;11.10;;;8.40;;
2388;SDS011;1205;47.984;7.668;2022-07-23T06:32:44;11.70;;;9.70;;
2388;SDS011;1205;47.984;7.668;2022-07-23T06:35:10;10.50;;;8.90;;
2388;SDS011;1205;47.984;7.668;2022-07-23T06:37:36;8.60;;;7.80;;
2388;SDS011;1205;47.984;7.668;2022-07-23T06:40:02;9.07;;;8.17;;
2388;SDS011;1205;47.984;7.668;2022-07-23T06:42:28;10.10;;;8.43;;
2388;SDS011;1205;47.984;7.668;2022-07-23T06:44:54;9.40;;;8.50;;
2388;SDS011;1205;47.984;7.668;2022-07-23T06:47:19;9.97;;;8.97;;
2388;SDS011;1205;47.984;7.668;2022-07-23T06:49:45;11.30;;;8.67;;
2388;SDS011;1205;47.984;7.668;2022-07-23T06:52:11;10.07;;;9.10;;
2388;SDS011;1205;47.984;7.668;2022-07-23T06:54:37;8.90;;;8.00;;
2388;SDS011;1205;47.984;7.668;2022-07-23T06:57:02;10.50;;;8.30;;
2388;SDS011;1205;47.984;7.668;2022-07-23T06:59:28;9.03;;;7.43;;
2388;SDS011;1205;47.984;7.668;2022-07-23T07:01:54;9.00;;;8.20;;
2388;SDS011;1205;47.984;7.668;2022-07-23T07:04:20;9.70;;;8.30;;
2388;SDS011;1205;47.984;7.668;2022-07-23T07:06:45;8.73;;;8.07;;
2388;SDS011;1205;47.984;7.668;2022-07-23T07:09:11;11.67;;;9.10;;
2388;SDS011;1205;47.984;7.668;2022-07-23T07:11:37;12.63;;;8.30;;
2388;SDS011;1205;47.984;7.668;2022-07-23T07:14:03;13.80;;;8.73;;
2388;SDS011;1205;47.984;7.668;2022-07-23T07:16:29;8.93;;;8.13;;
2388;SDS011;1205;47.984;7.668;2022-07-23T07:18:55;9.97;;;8.20;;
2388;SDS011;1205;47.984;7.668;2022-07-23T07:21:20;12.33;;;8.00;;
2388;SDS011;1205;47.984;7.668;2022-07-23T07:23:46;10.00;;;8.70;;
2388;SDS011;1205;47.984;7.668;2022-07-23T07:26:12;15.93;;;8.93;;
2388;SDS011;1205;47.984;7.668;2022-07-23T07:28:37;9.40;;;8.60;;
2388;SDS011;1205;47.984;7.668;2022-07-23T07:31:03;13.67;;;8.50;;
2388;SDS011;1205;47.984;7.668;2022-07-23T07:33:29;9.07;;;8.03;;
2388;SDS011;1205;47.984;7.668;2022-07-23T07:35:55;14.03;;;8.73;;
2388;SDS011;1205;47.984;7.668;2022-07-23T07:38:20;13.77;;;8.50;;
2388;SDS011;1205;47.984;7.668;2022-07-23T07:40:46;15.53;;;9.03;;
2388;SDS011;1205;47.984;7.668;2022-07-23T07:43:12;12.97;;;9.07;;
2388;SDS011;1205;47.984;7.668;2022-07-23T07:45:38;12.43;;;8.70;;
2388;SDS011;1205;47.984;7.668;2022-07-23T07:48:04;12.87;;;8.30;;
2388;SDS011;1205;47.984;7.668;2022-07-23T07:50:30;11.90;;;9.23;;
2388;SDS011;1205;47.984;7.668;2022-07-23T07:52:55;9.60;;;8.70;;
2388;SDS011;1205;47.984;7.668;2022-07-23T07:55:21;10.23;;;9.30;;
2388;SDS011;1205;47.984;7.668;2022-07-23T07:57:47;9.77;;;8.87;;
2388;SDS011;1205;47.984;7.668;2022-07-23T08:00:12;10.60;;;9.10;;
2388;SDS011;1205;47.984;7.668;2022-07-23T08:02:42;12.53;;;9.20;;
2388;SDS011;1205;47.984;7.668;2022-07-23T08:05:09;12.10;;;9.70;;
2388;SDS011;1205;47.984;7.668;2022-07-23T08:07:35;11.10;;;10.00;;
2388;SDS011;1205;47.984;7.668;2022-07-23T08:10:02;10.20;;;9.30;;
2388;SDS011;1205;47.984;7.668;2022-07-23T08:12:37;11.00;;;9.90;;
2388;SDS011;1205;47.984;7.668;2022-07-23T08:15:14;10.77;;;9.20;;
2388;SDS011;1205;47.984;7.668;2022-07-23T08:17:41;9.80;;;8.83;;
2388;SDS011;1205;47.984;7.668;2022-07-23T08:20:11;9.20;;;8.33;;
2388;SDS011;1205;47.984;7.668;2022-07-23T08:22:44;12.43;;;8.50;;
2388;SDS011;1205;47.984;7.668;2022-07-23T08:25:16;13.90;;;8.93;;
2388;SDS011;1205;47.984;7.668;2022-07-23T08:27:46;11.30;;;9.47;;
2388;SDS011;1205;47.984;7.668;2022-07-23T08:30:12;9.70;;;8.70;;
2388;SDS011;1205;47.984;7.668;2022-07-23T08:32:51;10.33;;;8.77;;
2388;SDS011;1205;47.984;7.668;2022-07-23T08:35:25;9.50;;;8.60;;
2388;SDS011;1205;47.984;7.668;2022-07-23T08:37:56;9.80;;;8.67;;
2388;SDS011;1205;47.984;7.668;2022-07-23T08:40:23;9.33;;;8.17;;
2388;SDS011;1205;47.984;7.668;2022-07-23T08:42:53;9.87;;;8.90;;
2388;SDS011;1205;47.984;7.668;2022-07-23T08:45:19;10.37;;;9.37;;
2388;SDS011;1205;47.984;7.668;2022-07-23T08:47:48;11.27;;;8.30;;
2388;SDS011;1205;47.984;7.668;2022-07-23T08:50:15;10.70;;;9.70;;
2388;SDS011;1205;47.984;7.668;2022-07-23T08:52:41;11.83;;;9.87;;
2388;SDS011;1205;47.984;7.668;2022-07-23T08:55:07;13.10;;;9.40;;
2388;SDS011;1205;47.984;7.668;2022-07-23T08:57:34;9.20;;;8.23;;
2388;SDS011;1205;47.984;7.668;2022-07-23T08:59:59;12.73;;;9.63;;
2388;SDS011;1205;47.984;7.668;2022-07-23T09:02:25;9.30;;;8.50;;
2388;SDS011;1205;47.984;7.668;2022-07-23T09:04:51;9.70;;;8.80;;
2388;SDS011;1205;47.984;7.668;2022-07-23T09:07:17;9.50;;;8.70;;
2388;SDS011;1205;47.984;7.668;2022-07-23T09:09:43;8.30;;;7.43;;
2388;SDS011;1205;47.984;7.668;2022-07-23T09:12:09;10.90;;;9.60;;
2388;SDS011;1205;47.984;7.668;2022-07-23T09:14:36;9.63;;;8.83;;
2388;SDS011;1205;47.984;7.668;2022-07-23T09:19:36;8.97;;;8.13;;
2388;SDS011;1205;47.984;7.668;2022-07-23T09:30:17;9.83;;;8.00;;
2388;SDS011;1205;47.984;7.668;2022-07-23T09:32:44;9.23;;;8.27;;
2388;SDS011;1205;47.984;7.668;2022-07-23T09:38:15;7.77;;;7.07;;
2388;SDS011;1205;47.984;7.668;2022-07-23T09:40:41;8.70;;;7.90;;
2388;SDS011;1205;47.984;7.668;2022-07-23T09:43:08;8.00;;;7.40;;
2388;SDS011;1205;47.984;7.668;2022-07-23T09:45:35;9.37;;;7.73;;
2388;SDS011;1205;47.984;7.668;2022-07-23T09:48:13;9.30;;;8.50;;
2388;SDS011;1205;47.984;7.668;2022-07-23T09:50:41;8.97;;;8.07;;
2388;SDS011;1205;47.984;7.668;2022-07-23T09:53:08;8.23;;;7.63;;
2388;SDS011;1205;47.984;7.668;2022-07-23T09:55:35;15.67;;;8.40;;
2388;SDS011;1205;47.984;7.668;2022-07-23T09:58:07;9.77;;;7.80;;
2388;SDS011;1205;47.984;7.668;2022-07-23T10:00:39;8.67;;;7.90;;
2388;SDS011;1205;47.984;7.668;2022-07-23T10:03:07;7.87;;;7.13;;
2388;SDS011;1205;47.984;7.668;2022-07-23T10:05:34;7.70;;;7.10;;
2388;SDS011;1205;47.984;7.668;2022-07-23T10:08:01;8.30;;;7.70;;
2388;SDS011;1205;47.984;7.668;2022-07-23T10:10:27;12.80;;;7.90;;
2388;SDS011;1205;47.984;7.668;2022-07-23T10:12:55;7.70;;;7.10;;
2388;SDS011;1205;47.984;7.668;2022-07-23T10:15:43;9.47;;;7.97;;
2388;SDS011;1205;47.984;7.668;2022-07-23T10:18:10;8.67;;;7.90;;
2388;SDS011;1205;47.984;7.668;2022-07-23T10:20:37;8.63;;;7.73;;
2388;SDS011;1205;47.984;7.668;2022-07-23T10:26:21;8.97;;;8.27;;
2388;SDS011;1205;47.984;7.668;2022-07-23T10:29:01;9.30;;;8.50;;
2388;SDS011;1205;47.984;7.668;2022-07-23T10:39:26;8.93;;;8.33;;
2388;SDS011;1205;47.984;7.668;2022-07-23T10:44:53;9.50;;;8.60;;
2388;SDS011;1205;47.984;7.668;2022-07-23T10:47:28;9.97;;;8.53;;
2388;SDS011;1205;47.984;7.668;2022-07-23T10:50:16;10.50;;;9.40;;
2388;SDS011;1205;47.984;7.668;2022-07-23T10:52:42;9.07;;;8.17;;
2388;SDS011;1205;47.984;7.668;2022-07-23T10:57:54;9.90;;;9.07;;
2388;SDS011;1205;47.984;7.668;2022-07-23T11:00:20;9.77;;;8.87;;
2388;SDS011;1205;47.984;7.668;2022-07-23T11:02:48;8.83;;;8.13;;
2388;SDS011;1205;47.984;7.668;2022-07-23T11:05:20;8.43;;;7.73;;
2388;SDS011;1205;47.984;7.668;2022-07-23T11:10:39;10.03;;;8.53;;
2388;SDS011;1205;47.984;7.668;2022-07-23T11:26:56;9.67;;;8.87;;
2388;SDS011;1205;47.984;7.668;2022-07-23T11:32:00;9.27;;;8.50;;
2388;SDS011;1205;47.984;7.668;2022-07-23T11:37:01;9.70;;;8.70;;
2388;SDS011;1205;47.984;7.668;2022-07-23T11:39:29;9.43;;;8.73;;
2388;SDS011;1205;47.984;7.668;2022-07-23T11:41:56;9.23;;;8.43;;
2388;SDS011;1205;47.984;7.668;2022-07-23T11:46:56;9.57;;;8.77;;
2388;SDS011;1205;47.984;7.668;2022-07-23T11:49:23;11.60;;;9.10;;
2388;SDS011;1205;47.984;7.668;2022-07-23T11:54:37;12.33;;;9.50;;
2388;SDS011;1205;47.984;7.668;2022-07-23T11:57:35;8.77;;;7.83;;
2388;SDS011;1205;47.984;7.668;2022-07-23T12:02:32;10.53;;;7.87;;
2388;SDS011;1205;47.984;7.668;2022-07-23T12:04:58;8.23;;;7.40;;
2388;SDS011;1205;47.984;7.668;2022-07-23T12:07:34;9.10;;;8.30;;
2388;SDS011;1205;47.984;7.668;2022-07-23T12:10:03;9.10;;;8.30;;
2388;SDS011;1205;47.984;7.668;2022-07-23T12:12:38;10.50;;;8.77;;
2388;SDS011;1205;47.984;7.668;2022-07-23T12:15:15;9.20;;;8.37;;
2388;SDS011;1205;47.984;7.668;2022-07-23T12:17:44;11.67;;;8.90;;
2388;SDS011;1205;47.984;7.668;2022-07-23T12:20:15;13.90;;;10.07;;
2388;SDS011;1205;47.984;7.668;2022-07-23T12:22:44;9.40;;;8.57;;
2388;SDS011;1205;47.984;7.668;2022-07-23T12:25:16;12.83;;;9.80;;
2388;SDS011;1205;47.984;7.668;2022-07-23T12:27:46;9.43;;;8.03;;
2388;SDS011;1205;47.984;7.668;2022-07-23T12:30:26;11.43;;;8.80;;
2388;SDS011;1205;47.984;7.668;2022-07-23T12:33:02;10.03;;;9.03;;
2388;SDS011;1205;47.984;7.668;2022-07-23T12:35:32;9.00;;;8.40;;
2388;SDS011;1205;47.984;7.668;2022-07-23T12:38:10;9.73;;;8.83;;
2388;SDS011;1205;47.984;7.668;2022-07-23T12:43:27;13.60;;;9.37;;
2388;SDS011;1205;47.984;7.668;2022-07-23T12:48:29;9.73;;;8.83;;
2388;SDS011;1205;47.984;7.668;2022-07-23T12:50:57;8.87;;;8.17;;
2388;SDS011;1205;47.984;7.668;2022-07-23T12:56:11;14.80;;;9.63;;
2388;SDS011;1205;47.984;7.668;2022-07-23T13:06:50;9.70;;;8.80;;
2388;SDS011;1205;47.984;7.668;2022-07-23T13:09:24;8.73;;;7.97;;
2388;SDS011;1205;47.984;7.668;2022-07-23T13:11:51;11.90;;;7.90;;
2388;SDS011;1205;47.984;7.668;2022-07-23T13:14:19;9.87;;;8.60;;
2388;SDS011;1205;47.984;7.668;2022-07-23T13:16:46;10.07;;;9.10;;
2388;SDS011;1205;47.984;7.668;2022-07-23T13:19:13;9.50;;;8.50;;
2388;SDS011;1205;47.984;7.668;2022-07-23T13:21:39;10.07;;;8.63;;
2388;SDS011;1205;47.984;7.668;2022-07-23T13:24:06;8.80;;;8.10;;
2388;SDS011;1205;47.984;7.668;2022-07-23T13:26:33;9.23;;;8.23;;
2388;SDS011;1205;47.984;7.668;2022-07-23T13:28:59;9.37;;;8.53;;
2388;SDS011;1205;47.984;7.668;2022-07-23T13:31:26;8.80;;;7.90;;
2388;SDS011;1205;47.984;7.668;2022-07-23T13:33:52;10.03;;;8.37;;
2388;SDS011;1205;47.984;7.668;2022-07-23T13:36:17;10.10;;;7.97;;
2388;SDS011;1205;47.984;7.668;2022-07-23T13:38:43;9.43;;;8.53;;
2388;SDS011;1205;47.984;7.668;2022-07-23T13:41:09;9.50;;;8.70;;
2388;SDS011;1205;47.984;7.668;2022-07-23T13:43:35;9.37;;;8.67;;
2388;SDS011;1205;47.984;7.668;2022-07-23T13:46:00;8.97;;;8.17;;
2388;SDS011;1205;47.984;7.668;2022-07-23T13:48:26;8.67;;;7.90;;
2388;SDS011;1205;47.984;7.668;2022-07-23T13:50:53;9.03;;;8.13;;
2388;SDS011;1205;47.984;7.668;2022-07-23T13:53:20;7.70;;;7.00;;
2388;SDS011;1205;47.984;7.668;2022-07-23T13:55:48;9.07;;;7.07;;
2388;SDS011;1205;47.984;7.668;2022-07-23T13:58:15;8.80;;;8.00;;
2388;SDS011;1205;47.984;7.668;2022-07-23T14:00:46;8.17;;;7.43;;
2388;SDS011;1205;47.984;7.668;2022-07-23T14:03:14;10.30;;;8.00;;
2388;SDS011;1205;47.984;7.668;2022-07-23T14:05:41;8.80;;;8.10;;
2388;SDS011;1205;47.984;7.668;2022-07-23T14:08:07;8.27;;;7.57;;
2388;SDS011;1205;47.984;7.668;2022-07-23T14:10:33;8.30;;;7.70;;
2388;SDS011;1205;47.984;7.668;2022-07-23T14:12:59;7.73;;;7.23;;
2388;SDS011;1205;47.984;7.668;2022-07-23T14:15:26;8.50;;;7.80;;
2388;SDS011;1205;47.984;7.668;2022-07-23T14:17:53;7.83;;;7.17;;
2388;SDS011;1205;47.984;7.668;2022-07-23T14:20:19;9.07;;;8.33;;
2388;SDS011;1205;47.984;7.668;2022-07-23T14:22:45;12.30;;;8.20;;
2388;SDS011;1205;47.984;7.668;2022-07-23T14:25:11;8.87;;;8.17;;
2388;SDS011;1205;47.984;7.668;2022-07-23T14:27:37;13.80;;;9.10;;
2388;SDS011;1205;47.984;7.668;2022-07-23T14:30:04;8.43;;;7.67;;
2388;SDS011;1205;47.984;7.668;2022-07-23T14:32:31;9.93;;;8.93;;
2388;SDS011;1205;47.984;7.668;2022-07-23T14:34:57;9.27;;;8.33;;
2388;SDS011;1205;47.984;7.668;2022-07-23T14:37:23;11.07;;;9.33;;
2388;SDS011;1205;47.984;7.668;2022-07-23T14:39:50;8.37;;;7.67;;
2388;SDS011;1205;47.984;7.668;2022-07-23T14:42:16;9.07;;;8.20;;
2388;SDS011;1205;47.984;7.668;2022-07-23T14:44:42;9.60;;;8.70;;
2388;SDS011;1205;47.984;7.668;2022-07-23T14:47:08;10.23;;;7.73;;
2388;SDS011;1205;47.984;7.668;2022-07-23T14:49:34;9.37;;;8.50;;
2388;SDS011;1205;47.984;7.668;2022-07-23T14:52:02;9.50;;;8.70;;
2388;SDS011;1205;47.984;7.668;2022-07-23T14:54:29;9.43;;;8.53;;
2388;SDS011;1205;47.984;7.668;2022-07-23T14:56:55;8.60;;;7.90;;
2388;SDS011;1205;47.984;7.668;2022-07-23T14:59:22;9.23;;;8.40;;
2388;SDS011;1205;47.984;7.668;2022-07-23T15:01:48;9.27;;;8.40;;
2388;SDS011;1205;47.984;7.668;2022-07-23T15:04:14;8.20;;;7.47;;
2388;SDS011;1205;47.984;7.668;2022-07-23T15:06:40;11.37;;;8.20;;
2388;SDS011;1205;47.984;7.668;2022-07-23T15:09:06;8.60;;;7.90;;
2388;SDS011;1205;47.984;7.668;2022-07-23T15:11:32;8.50;;;7.73;;
2388;SDS011;1205;47.984;7.668;2022-07-23T15:14:05;8.23;;;7.53;;
2388;SDS011;1205;47.984;7.668;2022-07-23T15:16:32;8.57;;;7.50;;
2388;SDS011;1205;47.984;7.668;2022-07-23T15:18:58;8.03;;;7.43;;
2388;SDS011;1205;47.984;7.668;2022-07-23T15:21:24;7.40;;;6.90;;
2388;SDS011;1205;47.984;7.668;2022-07-23T15:23:50;8.33;;;7.53;;
2388;SDS011;1205;47.984;7.668;2022-07-23T15:26:16;7.67;;;7.07;;
2388;SDS011;1205;47.984;7.668;2022-07-23T15:28:43;8.40;;;7.80;;
2388;SDS011;1205;47.984;7.668;2022-07-23T15:31:09;8.07;;;7.27;;
2388;SDS011;1205;47.984;7.668;2022-07-23T15:33:34;8.57;;;7.87;;
2388;SDS011;1205;47.984;7.668;2022-07-23T15:36:01;9.13;;;8.23;;
2388;SDS011;1205;47.984;7.668;2022-07-23T15:38:27;11.20;;;8.07;;
2388;SDS011;1205;47.984;7.668;2022-07-23T15:40:54;7.83;;;7.23;;
2388;SDS011;1205;47.984;7.668;2022-07-23T15:43:21;8.40;;;7.57;;
2388;SDS011;1205;47.984;7.668;2022-07-23T15:45:48;7.50;;;6.90;;
2388;SDS011;1205;47.984;7.668;2022-07-23T15:48:14;8.03;;;6.83;;
2388;SDS011;1205;47.984;7.668;2022-07-23T15:50:40;9.33;;;8.20;;
2388;SDS011;1205;47.984;7.668;2022-07-23T15:53:06;7.23;;;6.63;;
2388;SDS011;1205;47.984;7.668;2022-07-23T15:55:32;7.90;;;6.97;;
2388;SDS011;1205;47.984;7.668;2022-07-23T15:57:58;8.43;;;7.53;;
2388;SDS011;1205;47.984;7.668;2022-07-23T16:00:24;7.50;;;6.67;;
2388;SDS011;1205;47.984;7.668;2022-07-23T16:02:49;10.03;;;8.20;;
2388;SDS011;1205;47.984;7.668;2022-07-23T16:05:15;8.43;;;7.63;;
2388;SDS011;1205;47.984;7.668;2022-07-23T16:07:57;8.60;;;7.13;;
2388;SDS011;1205;47.984;7.668;2022-07-23T16:10:23;7.63;;;6.80;;
2388;SDS011;1205;47.984;7.668;2022-07-23T16:12:49;7.70;;;7.10;;
2388;SDS011;1205;47.984;7.668;2022-07-23T16:15:15;7.80;;;7.13;;
2388;SDS011;1205;47.984;7.668;2022-07-23T16:17:41;7.27;;;6.67;;
2388;SDS011;1205;47.984;7.668;2022-07-23T16:20:06;7.60;;;6.90;;